Sidney Municipal-Lloyd W Carr Field
KSNY : rendu visible

Aérodrome :











RETROUVEZ-NOUS SUR...

 
LOGIN :

S'inscrire | Disclaimer

   EN    FR    IT 

 









Légende :    VFR   VFR Marginal   IFR   IFR Intensif   IFR Très Intensif
Visi : 
Plafond : 
>= 8 km
>= 3000ft
5 à 8 km
1000 à 3000 ft
1500m à 5 km
500 à 1000 ft
800 à 1500m
200 à 500 ft
< 800m
< 200 ft
Symboles :   Orages  Brouillard  Fortes neiges  Fortes précipitations  Vent > 20 kt






- Altitude de l'aérodrome : 4313 ft


KSNY - Sidney Municipal-Lloyd W Carr Field

DERNIER METAR :
  • 261753Z AUTO 34010KT 10SM CLR 22/01 A2996 RMK AO2 SLP123 T02220006 10228 20028 56015

METARs EXPIRÉS :
  • 261653Z AUTO 31008KT 10SM CLR 21/01 A2998 RMK AO2 SLP129 T02110006
  • 261553Z AUTO 26008KT 10SM CLR 19/04 A2999 RMK AO2 SLP133 T01890039

TAF COR TAF KSNY
Valide du 26 à 18h jusqu'au 27 à 18h UTC


261758Z 2618/2718 33012KT P6SM SKC
FM270000 VRB05KT P6SM SCT090
FIR KZDV / Amérique du Nord



MET'MAP, la Météo Aéronautique d'un coup d'oeil ! - Copyright ORBIFLY Décembre 2007 - Disclaimer

ORBIFLY MET'MAP TEAM :

Programmation & Développement : Alexandra Zaïnal
Sur une idée originale de : Baudouin d'Aumeries
Assistance à la programmation : Marc-Olivier Méhu
Soutien technique & logistique : Manuel Goepfert

Contact : metmap@orbifly.com




SOURCES & CREDITS :

   NOAA       Earth
Advisory